Time;durP1;ratioP1;P1;durP2;ratioP2;P2;SDS_P1;SDS_P2;PMS_P1;PMS_P2;Temp;Humidity;BMP_temperature;BMP_pressure;BME280_temperature;BME280_humidity;BME280_pressure;Samples;Min_cycle;Max_cycle;Signal;HPM_P1;HPM_P2
2023/12/03 00:02:14;;;;;;;12.55;5.22;;;3.20;74.10;;;;;;5050771;28;20046;-72
2023/12/03 00:04:43;;;;;;;5.90;3.47;;;3.20;74.10;;;;;;5044233;28;20095;-70
2023/12/03 00:07:10;;;;;;;6.45;3.15;;;3.10;74.10;;;;;;5049823;28;20095;-72
2023/12/03 00:09:39;;;;;;;4.03;3.30;;;3.20;73.50;;;;;;5029092;28;20022;-72
2023/12/03 00:12:06;;;;;;;12.93;4.75;;;3.20;74.20;;;;;;5030167;28;20458;-72
2023/12/03 00:14:34;;;;;;;3.08;1.75;;;3.10;73.90;;;;;;5030637;28;20053;-71
2023/12/03 00:17:00;;;;;;;4.38;2.75;;;3.20;74.00;;;;;;5043435;28;20042;-73
2023/12/03 00:19:26;;;;;;;1.27;0.77;;;3.10;74.10;;;;;;5053652;28;20045;-71
2023/12/03 00:21:53;;;;;;;2.40;1.17;;;3.10;74.20;;;;;;5034597;28;20049;-72
2023/12/03 00:24:19;;;;;;;;;;;3.10;74.20;;;;;;5068247;28;20041;-71
2023/12/03 00:26:45;;;;;;;1.83;1.02;;;3.10;74.30;;;;;;5067536;28;19921;-70
2023/12/03 00:29:11;;;;;;;0.75;0.73;;;3.10;74.20;;;;;;5035378;28;20044;-72
2023/12/03 00:31:37;;;;;;;2.38;1.27;;;3.20;74.20;;;;;;5033313;28;20129;-72
2023/12/03 00:34:03;;;;;;;2.35;1.63;;;3.10;74.20;;;;;;5034133;28;20041;-72
2023/12/03 00:36:30;;;;;;;7.43;3.63;;;3.20;74.10;;;;;;5035615;28;20052;-71
2023/12/03 00:38:56;;;;;;;2.90;2.13;;;3.10;73.90;;;;;;5035269;28;20545;-71
2023/12/03 00:41:22;;;;;;;4.07;1.55;;;3.20;74.10;;;;;;5034709;28;20576;-71
2023/12/03 00:43:49;;;;;;;6.18;2.45;;;3.20;73.90;;;;;;5067065;28;20033;-72
2023/12/03 00:46:26;;;;;;;2.83;1.73;;;3.20;73.80;;;;;;5034125;28;20125;-71
2023/12/03 00:48:52;;;;;;;6.70;2.55;;;3.20;73.90;;;;;;5035046;28;20040;-72
2023/12/03 00:51:18;;;;;;;5.75;3.63;;;3.20;73.90;;;;;;5033156;28;20033;-72
2023/12/03 00:53:45;;;;;;;4.72;2.88;;;3.20;74.00;;;;;;5016959;28;20042;-71
2023/12/03 00:56:11;;;;;;;12.02;7.50;;;3.20;74.00;;;;;;5033757;28;20033;-71
2023/12/03 00:58:38;;;;;;;17.27;10.60;;;3.20;73.90;;;;;;5017302;28;20033;-72
2023/12/03 01:01:05;;;;;;;12.20;7.22;;;3.20;73.80;;;;;;5066169;28;20040;-73
2023/12/03 01:03:31;;;;;;;8.60;5.78;;;3.10;73.90;;;;;;5034931;28;20029;-71
2023/12/03 01:05:58;;;;;;;10.15;5.85;;;3.10;73.50;;;;;;5033355;28;20083;-72
2023/12/03 01:08:24;;;;;;;;;;;3.20;74.10;;;;;;5034108;28;20479;-72
2023/12/03 01:10:50;;;;;;;6.53;4.80;;;3.20;74.00;;;;;;5049382;28;19924;-71
2023/12/03 01:13:16;;;;;;;6.18;4.07;;;3.10;74.10;;;;;;5034395;28;20553;-71
2023/12/03 01:15:44;;;;;;;7.55;5.25;;;3.10;74.20;;;;;;5034426;28;20490;-70
2023/12/03 01:18:11;;;;;;;12.45;5.82;;;3.10;74.10;;;;;;5033454;28;20091;-73
2023/12/03 01:20:38;;;;;;;10.10;5.88;;;3.10;74.10;;;;;;5033582;28;20030;-73
2023/12/03 01:23:04;;;;;;;6.82;4.45;;;3.10;74.10;;;;;;5016744;28;20104;-71
2023/12/03 01:25:30;;;;;;;5.57;2.50;;;3.20;74.20;;;;;;5034532;28;20037;-71
2023/12/03 01:27:57;;;;;;;5.32;3.58;;;3.20;74.20;;;;;;5033322;28;20430;-71
2023/12/03 01:30:23;;;;;;;4.38;2.83;;;3.10;73.50;;;;;;5033809;28;20063;-73
2023/12/03 01:32:49;;;;;;;3.60;2.22;;;3.10;74.30;;;;;;5032368;28;20067;-70
2023/12/03 01:35:17;;;;;;;3.50;1.45;;;3.20;74.10;;;;;;5033248;28;20505;-73
2023/12/03 01:37:43;;;;;;;4.93;3.00;;;3.20;74.00;;;;;;5034639;28;20060;-71
2023/12/03 01:40:09;;;;;;;;;;;3.20;74.10;;;;;;5033042;28;20048;-71
2023/12/03 01:42:35;;;;;;;2.22;1.17;;;3.10;73.60;;;;;;5065960;28;19960;-73
2023/12/03 01:45:01;;;;;;;;;;;3.10;73.50;;;;;;5066595;28;20030;-71
2023/12/03 01:47:28;;;;;;;2.65;1.30;;;3.20;74.10;;;;;;5034552;28;19991;-72
2023/12/03 01:49:56;;;;;;;3.42;1.70;;;3.10;74.00;;;;;;5065856;28;20029;-71
2023/12/03 01:52:23;;;;;;;5.63;2.70;;;3.10;73.90;;;;;;5065470;28;20065;-70
2023/12/03 01:54:50;;;;;;;3.88;2.42;;;3.10;73.90;;;;;;5032417;28;20029;-73
2023/12/03 01:57:16;;;;;;;5.00;3.55;;;3.10;74.10;;;;;;5032867;28;20072;-72
2023/12/03 01:59:42;;;;;;;6.57;2.45;;;3.10;74.30;;;;;;5032572;28;20048;-71
2023/12/03 02:02:08;;;;;;;6.38;3.55;;;3.10;74.20;;;;;;5015515;28;20045;-72
2023/12/03 02:04:34;;;;;;;4.10;2.30;;;3.10;74.10;;;;;;5032628;28;20025;-73
2023/12/03 02:07:00;;;;;;;5.60;2.42;;;3.10;74.10;;;;;;5033488;28;20099;-71
2023/12/03 02:09:26;;;;;;;3.92;2.53;;;3.00;74.10;;;;;;5032444;28;20387;-71
2023/12/03 02:11:53;;;;;;;10.88;3.08;;;3.00;74.30;;;;;;5065234;28;20657;-71
2023/12/03 02:14:19;;;;;;;4.35;2.70;;;3.00;73.70;;;;;;5048793;28;20037;-71
2023/12/03 02:17:03;;;;;;;4.85;2.75;;;3.00;74.40;;;;;;5033669;28;20037;-71
2023/12/03 02:19:29;;;;;;;4.00;2.40;;;3.00;74.20;;;;;;5032339;28;20030;-71
2023/12/03 02:21:55;;;;;;;2.75;1.60;;;3.00;74.20;;;;;;5031290;28;20061;-73
2023/12/03 02:24:21;;;;;;;6.38;4.15;;;3.00;74.40;;;;;;5015656;28;20029;-71
2023/12/03 02:26:47;;;;;;;8.52;4.28;;;3.00;74.30;;;;;;5032164;28;20045;-71
2023/12/03 02:29:13;;;;;;;14.60;5.60;;;3.10;74.30;;;;;;5015565;28;20531;-71
2023/12/03 02:31:39;;;;;;;8.43;5.63;;;3.00;74.40;;;;;;5064522;28;20379;-73
2023/12/03 02:34:24;;;;;;;3.85;2.30;;;3.00;74.40;;;;;;5065038;28;20041;-71
2023/12/03 02:36:50;;;;;;;6.45;4.07;;;3.00;74.40;;;;;;5031888;28;20045;-73
2023/12/03 02:39:16;;;;;;;5.80;3.70;;;3.00;74.30;;;;;;5032544;28;20421;-73
2023/12/03 02:41:42;;;;;;;6.78;3.33;;;3.00;74.50;;;;;;5030788;28;20049;-73
2023/12/03 02:44:08;;;;;;;10.20;4.35;;;3.00;74.40;;;;;;5032800;28;20501;-73
2023/12/03 02:46:34;;;;;;;7.05;3.75;;;3.10;74.60;;;;;;5033239;28;20042;-71
2023/12/03 02:49:00;;;;;;;5.68;3.88;;;3.10;75.40;;;;;;5031848;28;20398;-72
2023/12/03 02:51:26;;;;;;;4.28;3.20;;;3.00;74.30;;;;;;5032352;28;20037;-73
2023/12/03 02:53:52;;;;;;;6.15;4.10;;;3.10;74.50;;;;;;5032691;28;20033;-71
2023/12/03 02:56:18;;;;;;;5.63;3.63;;;3.10;74.50;;;;;;5032803;28;20088;-73
2023/12/03 02:58:44;;;;;;;3.33;2.40;;;3.10;74.40;;;;;;5031429;28;20033;-73
2023/12/03 03:01:10;;;;;;;2.50;1.50;;;3.10;74.40;;;;;;5032285;28;20301;-72
2023/12/03 03:03:36;;;;;;;7.63;3.53;;;3.10;74.40;;;;;;5032814;28;20034;-73
2023/12/03 03:06:03;;;;;;;4.50;2.72;;;3.10;74.40;;;;;;5032622;28;20088;-73
2023/12/03 03:08:29;;;;;;;;;;;3.00;73.70;;;;;;5031959;28;20018;-72
2023/12/03 03:10:55;;;;;;;3.03;2.10;;;3.10;74.40;;;;;;5031867;28;19979;-73
2023/12/03 03:13:21;;;;;;;4.05;1.20;;;3.00;74.10;;;;;;5032267;28;20469;-72
2023/12/03 03:15:47;;;;;;;3.50;1.95;;;3.00;74.20;;;;;;5032616;28;20033;-71
2023/12/03 03:18:13;;;;;;;4.82;2.70;;;3.10;74.30;;;;;;5064552;28;20383;-71
2023/12/03 03:20:39;;;;;;;6.18;2.60;;;3.00;74.20;;;;;;5031772;28;20041;-71
2023/12/03 03:23:05;;;;;;;2.42;1.20;;;3.00;74.20;;;;;;5032565;28;20064;-71
2023/12/03 03:25:31;;;;;;;;;;;3.00;74.20;;;;;;5031565;28;20079;-71
2023/12/03 03:27:57;;;;;;;2.47;1.05;;;3.00;75.10;;;;;;5032945;28;20337;-73
2023/12/03 03:30:23;;;;;;;1.35;1.05;;;3.00;74.20;;;;;;5030662;28;20040;-71
2023/12/03 03:32:49;;;;;;;5.18;1.52;;;3.00;74.30;;;;;;5014789;28;20041;-71
2023/12/03 03:35:15;;;;;;;2.08;1.40;;;3.00;74.40;;;;;;5032324;28;20040;-73
2023/12/03 03:37:41;;;;;;;3.05;1.48;;;3.00;74.40;;;;;;5032693;28;20379;-73
2023/12/03 03:40:08;;;;;;;1.88;1.20;;;3.00;74.40;;;;;;5030705;28;20044;-71
2023/12/03 03:42:34;;;;;;;3.47;1.98;;;3.00;74.10;;;;;;5032192;28;20041;-73
2023/12/03 03:45:00;;;;;;;3.17;1.02;;;3.10;74.30;;;;;;5032277;28;20033;-71
2023/12/03 03:47:26;;;;;;;2.55;1.38;;;3.10;74.20;;;;;;5031345;28;20048;-71
2023/12/03 03:49:52;;;;;;;4.50;2.10;;;3.00;74.00;;;;;;5031176;28;20425;-72
2023/12/03 03:52:18;;;;;;;6.30;3.05;;;3.10;74.10;;;;;;5035452;28;20080;-72
2023/12/03 03:54:44;;;;;;;9.23;3.22;;;3.10;74.00;;;;;;5036039;28;20120;-73
2023/12/03 03:57:10;;;;;;;3.85;2.55;;;3.00;74.00;;;;;;5036390;28;20041;-71
2023/12/03 03:59:36;;;;;;;3.75;1.60;;;3.10;74.10;;;;;;5036096;28;20029;-71
2023/12/03 04:02:02;;;;;;;5.05;2.72;;;3.00;74.00;;;;;;5035604;28;20104;-71
2023/12/03 04:04:28;;;;;;;3.67;1.23;;;3.10;74.20;;;;;;5036045;28;20463;-71
2023/12/03 04:06:54;;;;;;;3.60;2.55;;;3.10;74.20;;;;;;5036198;28;20041;-73
2023/12/03 04:09:20;;;;;;;4.35;1.48;;;3.00;74.20;;;;;;5034496;28;20025;-71
2023/12/03 04:11:47;;;;;;;1.88;1.23;;;3.00;74.30;;;;;;5035559;28;20083;-71
2023/12/03 04:14:16;;;;;;;1.52;1.05;;;3.00;74.20;;;;;;5035612;28;20466;-73
2023/12/03 04:16:43;;;;;;;1.23;0.98;;;3.10;74.30;;;;;;5034562;28;20033;-73
2023/12/03 04:19:11;;;;;;;1.50;1.02;;;3.00;74.20;;;;;;5067812;28;20029;-72
2023/12/03 04:21:38;;;;;;;3.13;1.45;;;3.00;74.20;;;;;;5034994;28;20041;-73
2023/12/03 04:24:05;;;;;;;1.45;0.93;;;3.00;74.40;;;;;;5035684;28;20104;-71
2023/12/03 04:26:31;;;;;;;2.22;1.25;;;3.00;73.80;;;;;;5034113;28;20030;-73
2023/12/03 04:28:57;;;;;;;1.38;1.17;;;3.10;74.40;;;;;;5034345;28;20079;-73
2023/12/03 04:31:25;;;;;;;2.65;1.65;;;3.00;74.20;;;;;;5033575;28;20042;-72
2023/12/03 04:33:54;;;;;;;1.45;0.77;;;3.00;74.10;;;;;;5034258;28;20065;-73
2023/12/03 04:36:26;;;;;;;2.15;1.58;;;3.00;74.30;;;;;;5034122;28;20079;-73
2023/12/03 04:38:54;;;;;;;4.75;0.80;;;3.00;74.40;;;;;;5066267;28;20095;-73
2023/12/03 04:41:20;;;;;;;1.85;1.10;;;3.00;74.30;;;;;;5033384;28;20047;-73
2023/12/03 04:43:47;;;;;;;1.83;1.20;;;3.00;73.80;;;;;;5033822;28;20034;-71
2023/12/03 04:46:13;;;;;;;;;;;3.00;74.40;;;;;;5067854;28;20041;-71
2023/12/03 04:48:41;;;;;;;7.72;1.85;;;2.90;74.40;;;;;;5067211;28;20327;-71
2023/12/03 04:51:08;;;;;;;2.85;0.90;;;3.00;74.20;;;;;;5049649;28;20121;-73
2023/12/03 04:53:34;;;;;;;12.15;2.10;;;3.00;74.20;;;;;;5034722;28;20444;-73
2023/12/03 04:56:00;;;;;;;2.03;0.90;;;3.00;74.50;;;;;;5034977;28;20446;-71
2023/12/03 04:58:26;;;;;;;1.77;1.45;;;3.00;74.40;;;;;;5033702;28;20041;-73
2023/12/03 05:03:38;;;;;;;4.70;1.10;;;2.90;74.00;;;;;;5034324;28;20049;-71
2023/12/03 05:06:05;;;;;;;2.55;1.52;;;3.00;74.40;;;;;;5033576;28;20042;-71
2023/12/03 05:08:31;;;;;;;1.00;0.60;;;2.90;73.90;;;;;;5033461;28;20044;-71
2023/12/03 05:10:57;;;;;;;;;;;3.00;74.60;;;;;;5066640;28;20038;-73
2023/12/03 05:13:23;;;;;;;2.10;1.23;;;2.90;74.60;;;;;;5034455;28;19913;-71
2023/12/03 05:15:49;;;;;;;2.10;0.65;;;2.90;74.60;;;;;;5034800;28;20072;-73
2023/12/03 05:18:15;;;;;;;2.97;1.58;;;2.90;74.60;;;;;;5034570;28;20043;-73
2023/12/03 05:20:41;;;;;;;4.82;2.03;;;2.90;74.70;;;;;;5032665;28;20051;-73
2023/12/03 05:23:07;;;;;;;1.98;1.02;;;2.90;74.70;;;;;;5034614;28;20053;-73
2023/12/03 05:25:33;;;;;;;1.83;1.42;;;2.90;74.70;;;;;;5066569;28;20033;-72
2023/12/03 05:27:59;;;;;;;1.33;0.88;;;3.00;74.70;;;;;;5033366;28;20088;-71
2023/12/03 05:30:25;;;;;;;7.22;2.45;;;2.90;74.70;;;;;;5034000;28;20042;-73
2023/12/03 05:32:51;;;;;;;3.88;1.77;;;2.90;74.80;;;;;;5034652;28;20041;-71
2023/12/03 05:35:17;;;;;;;5.88;2.05;;;2.90;74.90;;;;;;5033615;28;20037;-71
2023/12/03 05:37:43;;;;;;;3.40;1.60;;;2.90;74.90;;;;;;5034729;28;20049;-73
2023/12/03 05:40:10;;;;;;;2.63;1.55;;;2.90;74.80;;;;;;5032625;28;20037;-71
2023/12/03 05:42:36;;;;;;;2.53;1.20;;;2.90;74.10;;;;;;5032652;28;20483;-73
2023/12/03 05:45:03;;;;;;;;;;;2.90;74.80;;;;;;5033662;28;20356;-72
2023/12/03 05:47:30;;;;;;;5.95;1.80;;;2.90;74.60;;;;;;5033155;28;20378;-70
2023/12/03 05:50:00;;;;;;;1.58;1.05;;;2.80;74.50;;;;;;5033938;28;20044;-71
2023/12/03 05:52:26;;;;;;;1.55;0.93;;;2.80;74.70;;;;;;5033641;28;20041;-73
2023/12/03 05:54:52;;;;;;;;;;;2.80;74.90;;;;;;5049374;28;20036;-73
2023/12/03 05:57:18;;;;;;;1.83;1.33;;;2.80;75.10;;;;;;5066073;28;19963;-73
2023/12/03 05:59:44;;;;;;;2.53;1.70;;;2.80;75.10;;;;;;5033892;28;20486;-72
2023/12/03 06:02:10;;;;;;;3.85;2.58;;;2.80;75.20;;;;;;5015417;28;20171;-71
2023/12/03 06:04:36;;;;;;;3.42;2.03;;;2.80;75.00;;;;;;5032387;28;20036;-73
2023/12/03 06:07:02;;;;;;;3.28;1.90;;;2.80;75.00;;;;;;5033644;28;20053;-72
2023/12/03 06:09:28;;;;;;;4.97;1.70;;;2.80;74.90;;;;;;5065646;28;20057;-71
2023/12/03 06:11:54;;;;;;;3.67;2.22;;;2.80;74.90;;;;;;5064919;28;20037;-74
2023/12/03 06:14:20;;;;;;;1.80;1.10;;;2.90;74.90;;;;;;5032333;28;20441;-72
2023/12/03 06:16:46;;;;;;;6.05;3.33;;;2.80;74.70;;;;;;5032196;28;20041;-73
2023/12/03 06:19:12;;;;;;;5.07;1.95;;;2.90;74.80;;;;;;5033618;28;20083;-74
2023/12/03 06:21:38;;;;;;;3.33;1.83;;;2.90;74.80;;;;;;5064470;28;20050;-74
2023/12/03 06:24:05;;;;;;;2.22;1.55;;;2.90;74.80;;;;;;5032054;28;20087;-71
2023/12/03 06:26:32;;;;;;;2.83;1.90;;;2.90;74.10;;;;;;5032073;28;20087;-73
2023/12/03 06:28:58;;;;;;;;;;;2.80;74.10;;;;;;5033730;28;20071;-73
2023/12/03 06:31:24;;;;;;;2.95;1.83;;;2.80;74.70;;;;;;5032408;28;19925;-73
2023/12/03 06:33:50;;;;;;;6.53;3.25;;;2.80;74.70;;;;;;5015315;28;20025;-71
2023/12/03 06:36:16;;;;;;;6.50;3.25;;;2.80;74.80;;;;;;5031971;28;20038;-73
2023/12/03 06:38:42;;;;;;;3.53;1.75;;;2.80;74.90;;;;;;5031895;28;20477;-73
2023/12/03 06:41:08;;;;;;;1.48;1.02;;;2.90;74.90;;;;;;5032364;28;20451;-71
2023/12/03 06:43:34;;;;;;;3.47;2.88;;;2.90;74.80;;;;;;5033509;28;20034;-71
2023/12/03 06:46:00;;;;;;;3.88;2.05;;;2.90;74.70;;;;;;5032966;28;20114;-73
2023/12/03 06:48:26;;;;;;;2.40;1.60;;;2.90;74.80;;;;;;5033024;28;20548;-73
2023/12/03 06:50:53;;;;;;;9.85;2.58;;;2.90;74.80;;;;;;5047601;28;20041;-73
2023/12/03 06:53:19;;;;;;;4.10;1.73;;;2.90;74.60;;;;;;5031458;28;20410;-74
2023/12/03 06:55:46;;;;;;;4.00;2.88;;;2.90;74.60;;;;;;5047948;28;20029;-71
2023/12/03 06:58:12;;;;;;;1.77;1.02;;;3.00;74.60;;;;;;5064845;28;20048;-73
2023/12/03 07:00:38;;;;;;;2.95;1.60;;;3.00;74.50;;;;;;5030910;28;20034;-73
2023/12/03 07:03:04;;;;;;;2.83;1.85;;;3.00;74.60;;;;;;5032755;28;20037;-71
2023/12/03 07:05:30;;;;;;;5.65;1.58;;;3.00;74.50;;;;;;5014944;28;20528;-73
2023/12/03 07:07:56;;;;;;;5.22;1.20;;;3.10;74.60;;;;;;5033154;28;20087;-72
2023/12/03 07:10:22;;;;;;;4.97;1.42;;;3.10;74.40;;;;;;5031006;28;20502;-73
2023/12/03 07:12:48;;;;;;;6.32;3.40;;;3.10;74.40;;;;;;5031378;28;20030;-73
2023/12/03 07:15:14;;;;;;;5.97;2.72;;;3.10;74.40;;;;;;5032724;28;20042;-74
2023/12/03 07:17:41;;;;;;;9.88;5.32;;;3.10;74.20;;;;;;5031295;28;20029;-74
2023/12/03 07:20:08;;;;;;;14.88;7.10;;;3.10;74.10;;;;;;5064078;28;20479;-74
2023/12/03 07:22:34;;;;;;;16.05;8.50;;;3.20;73.80;;;;;;5064393;28;20048;-72
2023/12/03 07:25:02;;;;;;;12.45;9.00;;;3.30;73.80;;;;;;5064252;28;20038;-74
2023/12/03 07:27:28;;;;;;;10.05;6.28;;;3.30;73.70;;;;;;5031282;28;20471;-74
2023/12/03 07:29:56;;;;;;;13.10;7.25;;;3.30;73.00;;;;;;5032089;28;20414;-71
2023/12/03 07:32:40;;;;;;;12.02;6.57;;;3.40;73.40;;;;;;5046949;28;20053;-72
2023/12/03 07:35:07;;;;;;;6.82;4.75;;;3.40;73.40;;;;;;5064348;28;20030;-74
2023/12/03 07:37:33;;;;;;;5.13;3.00;;;3.40;73.00;;;;;;5032778;28;20053;-71
2023/12/03 07:39:59;;;;;;;5.28;2.72;;;3.50;73.00;;;;;;5031110;28;20021;-74
2023/12/03 07:42:26;;;;;;;4.97;3.45;;;3.60;72.60;;;;;;5031767;28;20493;-73
2023/12/03 07:44:52;;;;;;;5.97;2.63;;;3.60;72.50;;;;;;5032308;28;20049;-74
2023/12/03 07:47:18;;;;;;;5.35;3.38;;;3.60;72.40;;;;;;5031088;28;20029;-73
2023/12/03 07:49:44;;;;;;;5.40;3.75;;;3.70;72.30;;;;;;5032200;28;20034;-72
2023/12/03 07:52:10;;;;;;;7.25;4.35;;;3.70;72.10;;;;;;5030411;28;20065;-74
2023/12/03 07:54:36;;;;;;;9.73;4.72;;;3.80;71.90;;;;;;5030799;28;20033;-74
2023/12/03 07:57:02;;;;;;;7.47;4.43;;;3.80;71.60;;;;;;5031749;28;20060;-72
2023/12/03 07:59:29;;;;;;;7.25;3.95;;;3.90;71.50;;;;;;5064232;28;20437;-74
2023/12/03 08:01:55;;;;;;;4.65;1.45;;;4.00;71.50;;;;;;5013925;28;20502;-74
2023/12/03 08:04:21;;;;;;;2.50;0.95;;;4.10;71.20;;;;;;5030883;28;20034;-74
2023/12/03 08:06:47;;;;;;;7.72;4.15;;;4.10;70.80;;;;;;5032335;28;20047;-74
2023/12/03 08:09:13;;;;;;;8.02;3.05;;;4.20;70.30;;;;;;5030767;28;20104;-71
2023/12/03 08:11:39;;;;;;;3.78;2.65;;;4.30;70.30;;;;;;5030086;28;20402;-71
2023/12/03 08:14:07;;;;;;;2.85;1.77;;;4.30;70.10;;;;;;5030307;28;20086;-74
2023/12/03 08:16:33;;;;;;;4.10;2.17;;;4.40;70.00;;;;;;5014303;28;20040;-74
2023/12/03 08:18:59;;;;;;;11.55;4.95;;;4.50;69.70;;;;;;5030592;28;20033;-74
2023/12/03 08:21:25;;;;;;;6.45;4.75;;;4.40;69.20;;;;;;5013304;28;20057;-71
2023/12/03 08:23:51;;;;;;;9.32;5.57;;;4.40;69.50;;;;;;5031694;28;20033;-71
2023/12/03 08:26:18;;;;;;;18.73;9.60;;;4.50;69.70;;;;;;5030468;28;20048;-74
2023/12/03 08:28:44;;;;;;;19.77;8.35;;;4.50;69.50;;;;;;5014103;28;20643;-74
2023/12/03 08:31:10;;;;;;;;;;;4.60;70.10;;;;;;5013988;28;20042;-71
2023/12/03 08:33:36;;;;;;;19.20;12.20;;;4.60;69.20;;;;;;5047053;28;19913;-74
2023/12/03 08:36:06;;;;;;;12.63;6.75;;;4.60;68.80;;;;;;5046921;28;20088;-74
2023/12/03 08:38:32;;;;;;;13.02;6.90;;;4.70;68.50;;;;;;5066748;28;20025;-74
2023/12/03 08:40:58;;;;;;;9.60;4.63;;;4.70;68.60;;;;;;5038196;28;20283;-71
2023/12/03 08:43:28;;;;;;;3.08;2.35;;;4.90;68.20;;;;;;5054813;28;20037;-73
2023/12/03 08:45:56;;;;;;;15.50;7.57;;;5.00;67.50;;;;;;5054863;28;20025;-74
2023/12/03 08:48:24;;;;;;;7.55;5.30;;;4.90;67.50;;;;;;5053109;28;20079;-72
2023/12/03 08:50:50;;;;;;;10.30;6.07;;;5.00;67.40;;;;;;5049704;28;20026;-74
2023/12/03 08:53:17;;;;;;;6.85;4.18;;;5.00;67.50;;;;;;5035226;28;20061;-71
2023/12/03 08:55:43;;;;;;;8.18;4.85;;;5.00;67.20;;;;;;5033740;28;20375;-74
2023/12/03 08:58:09;;;;;;;8.98;5.95;;;5.00;67.20;;;;;;5035092;28;20033;-71
2023/12/03 09:00:35;;;;;;;6.25;4.25;;;5.00;67.10;;;;;;5051900;28;20498;-71
2023/12/03 09:03:01;;;;;;;10.45;4.07;;;5.00;66.90;;;;;;5053719;28;20037;-74
2023/12/03 09:05:27;;;;;;;;;;;5.10;66.70;;;;;;5034919;28;20486;-72
2023/12/03 09:07:53;;;;;;;6.28;3.15;;;5.10;66.90;;;;;;5014874;28;21330;-74
2023/12/03 09:10:21;;;;;;;4.72;3.00;;;5.20;66.30;;;;;;5029647;28;20400;-71
2023/12/03 09:12:47;;;;;;;5.18;2.58;;;5.20;66.30;;;;;;5015016;28;20442;-71
2023/12/03 09:15:13;;;;;;;14.57;9.55;;;5.20;66.20;;;;;;5013782;28;20056;-71
2023/12/03 09:17:39;;;;;;;19.95;10.52;;;5.30;66.00;;;;;;5030419;28;20042;-74
2023/12/03 09:20:06;;;;;;;11.27;6.30;;;5.30;65.60;;;;;;5013190;28;20376;-73
2023/12/03 09:22:33;;;;;;;6.28;4.13;;;5.40;64.90;;;;;;5015279;28;20049;-74
2023/12/03 09:24:59;;;;;;;13.10;6.72;;;5.50;64.60;;;;;;5014492;28;20057;-74
2023/12/03 09:27:25;;;;;;;5.85;4.03;;;5.60;64.00;;;;;;5014974;28;20030;-74
2023/12/03 09:29:51;;;;;;;6.72;4.10;;;5.70;64.00;;;;;;5013080;28;20376;-74
2023/12/03 09:32:17;;;;;;;7.35;4.88;;;5.80;64.30;;;;;;5012694;28;20045;-71
2023/12/03 09:34:43;;;;;;;11.38;4.68;;;5.70;64.40;;;;;;5029696;28;20044;-71
2023/12/03 09:37:09;;;;;;;5.40;3.30;;;5.70;64.50;;;;;;5013267;28;20483;-74
2023/12/03 09:39:35;;;;;;;5.20;3.30;;;5.60;64.50;;;;;;5012950;28;20061;-74
2023/12/03 09:42:02;;;;;;;4.25;2.40;;;5.60;64.40;;;;;;5012056;28;20042;-72
2023/12/03 09:44:40;;;;;;;4.97;3.20;;;5.60;64.50;;;;;;5013303;28;20383;-71
2023/12/03 09:49:54;;;;;;;4.50;2.17;;;5.60;63.70;;;;;;5013949;28;20173;-74
2023/12/03 09:52:24;;;;;;;4.22;3.25;;;5.70;63.90;;;;;;5012551;28;20100;-71
2023/12/03 09:55:12;;;;;;;3.72;2.55;;;5.70;63.30;;;;;;4996907;28;20037;-72
2023/12/03 09:57:41;;;;;;;3.15;2.33;;;5.70;63.60;;;;;;5012770;28;20030;-74
2023/12/03 10:00:08;;;;;;;6.13;3.63;;;5.70;63.70;;;;;;5028396;28;20049;-71
2023/12/03 10:02:34;;;;;;;4.72;2.17;;;5.70;63.60;;;;;;5029317;28;20033;-74
2023/12/03 10:05:01;;;;;;;;;;;5.90;63.40;;;;;;5014489;28;20026;-72
2023/12/03 10:07:29;;;;;;;5.47;3.65;;;6.10;62.00;;;;;;5029274;28;19987;-74
2023/12/03 10:10:18;;;;;;;3.25;1.60;;;6.30;61.00;;;;;;5012580;28;20080;-71
2023/12/03 10:12:44;;;;;;;3.78;2.15;;;6.70;59.20;;;;;;5011746;28;20065;-72
2023/12/03 10:15:11;;;;;;;3.67;2.03;;;7.70;57.10;;;;;;5013727;28;20526;-71
2023/12/03 10:17:39;;;;;;;2.50;1.63;;;8.30;55.10;;;;;;5029054;28;20121;-71
2023/12/03 10:20:42;;;;;;;3.63;2.45;;;8.70;53.70;;;;;;5028478;28;20072;-72
2023/12/03 10:23:27;;;;;;;2.63;1.58;;;8.50;54.50;;;;;;5012345;28;20099;-72
2023/12/03 10:25:53;;;;;;;1.48;1.08;;;8.40;53.80;;;;;;5013343;28;20361;-72
2023/12/03 10:28:20;;;;;;;6.57;1.90;;;8.20;54.50;;;;;;5028898;28;20036;-72
2023/12/03 10:30:47;;;;;;;6.72;3.22;;;8.30;54.90;;;;;;5012639;28;20033;-75
2023/12/03 10:33:16;;;;;;;6.85;4.53;;;9.00;53.90;;;;;;5028593;28;20072;-72
2023/12/03 10:35:42;;;;;;;6.55;3.05;;;10.70;49.50;;;;;;5028359;28;20371;-74
2023/12/03 10:38:08;;;;;;;2.90;1.45;;;11.10;46.80;;;;;;5034037;28;20064;-74
2023/12/03 10:40:34;;;;;;;3.95;2.45;;;11.20;47.00;;;;;;5032499;28;20029;-74
2023/12/03 10:43:02;;;;;;;7.93;2.97;;;10.80;47.10;;;;;;5032334;28;20033;-72
2023/12/03 10:45:30;;;;;;;4.68;2.58;;;10.90;46.60;;;;;;5014809;28;20084;-74
2023/12/03 10:48:04;;;;;;;3.05;2.00;;;10.60;45.50;;;;;;5014359;28;20048;-71
2023/12/03 10:50:31;;;;;;;2.05;1.30;;;9.80;48.00;;;;;;5027671;28;20038;-71
2023/12/03 10:53:16;;;;;;;2.60;1.35;;;9.10;49.60;;;;;;5028296;28;20103;-71
2023/12/03 10:55:43;;;;;;;3.63;1.38;;;8.50;50.80;;;;;;5028370;28;20498;-75
2023/12/03 10:58:10;;;;;;;;;;;8.10;51.70;;;;;;5013341;28;20026;-72
2023/12/03 11:00:40;;;;;;;12.25;5.03;;;7.70;51.80;;;;;;5043547;28;19918;-75
2023/12/03 11:03:17;;;;;;;2.20;1.10;;;7.30;52.60;;;;;;5011497;28;20038;-71
2023/12/03 11:06:04;;;;;;;5.55;1.77;;;7.00;53.40;;;;;;5011992;28;20030;-74
2023/12/03 11:08:32;;;;;;;3.17;1.88;;;6.80;54.30;;;;;;5021145;28;20037;-71
2023/12/03 11:10:58;;;;;;;4.50;2.30;;;6.50;54.00;;;;;;5050536;28;20094;-71
2023/12/03 11:13:27;;;;;;;1.52;0.68;;;6.30;55.10;;;;;;5021735;28;20041;-72
2023/12/03 11:15:53;;;;;;;1.90;1.23;;;6.10;56.30;;;;;;5027801;28;20030;-71
2023/12/03 11:18:22;;;;;;;2.33;1.58;;;6.00;56.90;;;;;;5011033;28;20034;-72
2023/12/03 11:20:50;;;;;;;2.25;1.90;;;5.90;57.00;;;;;;5029703;28;20037;-72
2023/12/03 11:24:02;;;;;;;3.70;2.67;;;5.90;57.30;;;;;;5027105;28;20136;-71
2023/12/03 11:26:28;;;;;;;5.22;3.13;;;5.70;57.40;;;;;;5075458;28;20448;-71
2023/12/03 11:28:59;;;;;;;6.38;0.85;;;5.70;58.60;;;;;;5047362;28;20487;-75
2023/12/03 11:31:26;;;;;;;4.13;1.98;;;5.60;58.10;;;;;;5010950;28;20041;-71
2023/12/03 11:34:10;;;;;;;1.67;1.27;;;5.60;58.00;;;;;;5005609;28;20040;-75
2023/12/03 11:36:55;;;;;;;1.35;0.82;;;5.50;57.80;;;;;;5012526;28;20429;-71
2023/12/03 11:39:21;;;;;;;2.20;1.27;;;5.50;58.30;;;;;;5011835;28;20076;-71
2023/12/03 11:42:03;;;;;;;2.03;1.73;;;5.40;58.40;;;;;;5027021;28;20038;-74
2023/12/03 11:44:29;;;;;;;8.95;3.17;;;5.40;58.50;;;;;;5012471;28;20026;-75
2023/12/03 11:47:15;;;;;;;5.90;2.28;;;5.60;58.40;;;;;;5022834;28;20312;-74
2023/12/03 11:49:41;;;;;;;5.45;2.85;;;6.50;56.30;;;;;;5030679;28;20037;-72
2023/12/03 11:52:08;;;;;;;8.80;4.78;;;6.40;55.70;;;;;;5030081;28;20171;-75
2023/12/03 11:55:11;;;;;;;5.03;3.47;;;6.10;56.10;;;;;;5014188;28;20741;-75
2023/12/03 11:57:37;;;;;;;3.03;1.67;;;5.90;56.60;;;;;;5029878;28;20057;-74
2023/12/03 12:00:06;;;;;;;5.65;3.20;;;5.70;57.10;;;;;;5032189;28;20041;-72
2023/12/03 12:02:36;;;;;;;11.40;5.00;;;5.60;57.20;;;;;;5014932;28;20065;-74
2023/12/03 12:05:03;;;;;;;2.85;2.35;;;5.40;57.40;;;;;;5023779;28;20064;-74
2023/12/03 12:07:29;;;;;;;3.35;2.50;;;5.40;58.00;;;;;;5050914;28;20436;-71
2023/12/03 12:09:57;;;;;;;5.80;3.92;;;5.30;58.60;;;;;;5051721;28;20075;-74
2023/12/03 12:12:23;;;;;;;2.22;1.42;;;5.20;58.70;;;;;;5051256;28;20045;-74
2023/12/03 12:14:49;;;;;;;2.72;2.35;;;5.10;59.20;;;;;;5055745;28;20107;-74
2023/12/03 12:17:15;;;;;;;7.53;2.47;;;5.20;59.00;;;;;;5055660;28;20041;-71
2023/12/03 12:20:00;;;;;;;3.80;2.40;;;5.10;59.10;;;;;;5054107;28;20029;-75
2023/12/03 12:22:26;;;;;;;3.95;1.58;;;5.20;59.40;;;;;;5013735;28;20081;-71
2023/12/03 12:24:52;;;;;;;3.97;1.90;;;5.10;59.30;;;;;;5015791;28;20407;-72
2023/12/03 12:27:18;;;;;;;3.72;1.25;;;5.10;59.70;;;;;;5016267;28;20042;-74
2023/12/03 12:29:46;;;;;;;2.33;2.13;;;5.10;59.60;;;;;;5014742;28;20111;-74
2023/12/03 12:32:12;;;;;;;1.65;0.95;;;5.10;58.90;;;;;;5026532;28;20052;-71
2023/12/03 12:34:39;;;;;;;7.63;3.17;;;5.10;59.70;;;;;;5014484;28;20399;-71
2023/12/03 12:37:23;;;;;;;10.25;5.07;;;5.20;59.70;;;;;;5017906;28;20087;-74
2023/12/03 12:39:50;;;;;;;3.33;2.40;;;5.20;59.50;;;;;;5035299;28;20095;-75
2023/12/03 12:42:24;;;;;;;5.05;2.75;;;5.30;59.40;;;;;;5034688;28;20069;-71
2023/12/03 12:44:50;;;;;;;3.58;3.05;;;5.70;58.90;;;;;;5033263;28;20645;-74
2023/12/03 12:47:36;;;;;;;10.73;3.78;;;7.00;56.90;;;;;;5017326;28;20040;-74
2023/12/03 12:50:04;;;;;;;17.60;6.03;;;7.90;53.20;;;;;;5017593;28;20040;-75
2023/12/03 12:52:34;;;;;;;7.78;3.50;;;7.80;52.40;;;;;;5034992;28;20398;-71
2023/12/03 12:55:01;;;;;;;9.00;4.18;;;7.80;52.30;;;;;;5023722;28;20137;-71
2023/12/03 12:57:27;;;;;;;5.07;2.97;;;7.90;51.10;;;;;;5014372;28;20061;-74
2023/12/03 12:59:53;;;;;;;7.25;1.85;;;7.90;51.20;;;;;;5030465;28;20088;-74
2023/12/03 13:02:21;;;;;;;4.25;2.40;;;8.60;49.70;;;;;;5014930;28;20030;-74
2023/12/03 13:04:48;;;;;;;2.92;1.52;;;9.60;47.40;;;;;;5030227;28;20036;-74
2023/12/03 13:07:14;;;;;;;2.30;2.00;;;10.00;46.10;;;;;;5030463;28;20040;-71
2023/12/03 13:09:40;;;;;;;8.55;2.97;;;9.90;45.30;;;;;;4997549;28;20458;-74